Time;durP1;ratioP1;P1;durP2;ratioP2;P2;SDS_P1;SDS_P2;PMS_P1;PMS_P2;Temp;Humidity;BMP_temperature;BMP_pressure;BME280_temperature;BME280_humidity;BME280_pressure;Samples;Min_cycle;Max_cycle;Signal;HPM_P1;HPM_P2
2022/12/12 00:00:55;;;;;;;24.50;9.50;;;0.50;99.90;;;;;;5025199;28;20061;-68
2022/12/12 00:03:21;;;;;;;22.33;8.77;;;0.50;99.90;;;;;;5025128;28;20440;-68
2022/12/12 00:05:47;;;;;;;21.93;8.67;;;0.50;99.90;;;;;;5026531;28;20065;-68
2022/12/12 00:08:13;;;;;;;22.33;9.30;;;0.50;99.90;;;;;;5026915;28;20439;-69
2022/12/12 00:10:38;;;;;;;20.70;8.00;;;0.50;99.90;;;;;;5025357;28;20136;-69
2022/12/12 00:13:04;;;;;;;19.07;8.37;;;0.50;99.90;;;;;;5024971;28;20084;-69
2022/12/12 00:15:30;;;;;;;23.83;9.17;;;0.50;99.90;;;;;;5026658;28;20056;-69
2022/12/12 00:17:55;;;;;;;26.10;9.40;;;0.60;99.90;;;;;;5026203;28;20045;-69
2022/12/12 00:20:21;;;;;;;22.20;8.30;;;0.50;99.90;;;;;;5025468;28;20275;-69
2022/12/12 00:22:46;;;;;;;29.40;9.47;;;0.60;99.90;;;;;;5023671;28;20482;-68
2022/12/12 00:25:12;;;;;;;19.73;8.17;;;0.60;99.90;;;;;;5025332;28;20270;-68
2022/12/12 00:27:38;;;;;;;24.30;9.20;;;0.60;99.90;;;;;;5024719;28;20084;-69
2022/12/12 00:30:05;;;;;;;22.43;9.67;;;0.60;99.90;;;;;;5025298;28;20048;-68
2022/12/12 00:32:32;;;;;;;22.33;8.25;;;0.60;99.90;;;;;;5024417;28;20050;-69
2022/12/12 00:34:57;;;;;;;20.38;8.65;;;0.60;99.90;;;;;;5023028;28;20049;-69
2022/12/12 00:37:23;;;;;;;20.60;8.73;;;0.60;99.90;;;;;;5024230;28;20076;-69
2022/12/12 00:39:49;;;;;;;25.03;9.03;;;0.60;99.90;;;;;;5024361;28;20037;-69
2022/12/12 00:42:17;;;;;;;21.83;9.20;;;0.60;99.90;;;;;;5026355;28;20041;-69
2022/12/12 00:44:43;;;;;;;19.10;8.10;;;0.70;99.90;;;;;;5025618;28;20044;-69
2022/12/12 00:47:08;;;;;;;17.20;7.73;;;0.70;99.90;;;;;;5024206;28;20068;-69
2022/12/12 00:49:34;;;;;;;21.43;8.57;;;0.70;99.90;;;;;;5026608;28;20068;-70
2022/12/12 00:52:00;;;;;;;22.63;9.50;;;0.70;99.90;;;;;;5024754;28;20502;-69
2022/12/12 00:54:25;;;;;;;22.30;8.40;;;0.70;99.90;;;;;;5026074;28;20128;-69
2022/12/12 00:56:51;;;;;;;19.73;8.23;;;0.70;99.90;;;;;;5024302;28;20037;-70
2022/12/12 00:59:18;;;;;;;20.87;8.87;;;0.70;99.90;;;;;;5026261;28;20688;-69
2022/12/12 01:01:45;;;;;;;18.95;8.57;;;0.70;99.90;;;;;;5024340;28;20686;-69
2022/12/12 01:04:10;;;;;;;22.70;8.90;;;0.70;99.90;;;;;;5025575;28;20072;-70
2022/12/12 01:06:36;;;;;;;20.67;9.23;;;0.70;99.90;;;;;;5007821;28;20049;-69
2022/12/12 01:09:02;;;;;;;20.57;9.10;;;0.70;99.90;;;;;;5025463;28;20120;-69
2022/12/12 01:11:28;;;;;;;26.50;9.13;;;0.70;99.90;;;;;;5026251;28;20067;-69
2022/12/12 01:13:54;;;;;;;21.10;8.10;;;0.70;99.90;;;;;;5022128;28;20136;-69
2022/12/12 01:16:20;;;;;;;21.38;8.88;;;0.70;99.90;;;;;;5022046;28;20045;-68
2022/12/12 01:18:46;;;;;;;18.75;7.47;;;0.70;99.90;;;;;;5013743;28;20062;-69
2022/12/12 01:21:14;;;;;;;21.33;9.17;;;0.70;99.90;;;;;;4988370;28;20041;-69
2022/12/12 01:23:41;;;;;;;19.17;8.50;;;0.70;99.90;;;;;;5014418;28;20085;-69
2022/12/12 01:26:10;;;;;;;24.45;9.02;;;0.70;99.90;;;;;;5025779;28;20219;-69
2022/12/12 01:28:36;;;;;;;19.98;7.78;;;0.70;99.90;;;;;;5023979;28;20434;-69
2022/12/12 01:31:06;;;;;;;22.88;9.10;;;0.80;99.90;;;;;;5024057;28;20045;-74
2022/12/12 01:33:32;;;;;;;24.95;10.35;;;0.70;99.90;;;;;;5023191;28;20068;-70
2022/12/12 01:35:58;;;;;;;19.03;7.63;;;0.70;99.90;;;;;;5023827;28;20076;-71
2022/12/12 01:38:23;;;;;;;22.48;8.48;;;0.70;99.90;;;;;;5022748;28;20290;-68
2022/12/12 01:40:50;;;;;;;19.93;8.37;;;0.80;99.90;;;;;;5027152;28;20037;-69
2022/12/12 01:43:18;;;;;;;22.77;9.25;;;0.80;99.90;;;;;;5027178;28;20487;-69
2022/12/12 01:46:02;;;;;;;25.05;9.55;;;0.70;99.90;;;;;;5005959;28;20095;-69
2022/12/12 01:48:39;;;;;;;20.70;8.57;;;0.70;99.90;;;;;;5022748;28;20049;-69
2022/12/12 01:51:07;;;;;;;;;;;0.70;99.90;;;;;;5024981;28;20053;-69
2022/12/12 01:53:33;;;;;;;18.45;8.10;;;0.70;99.90;;;;;;5031407;28;20012;-69
2022/12/12 01:56:02;;;;;;;18.63;8.63;;;0.70;99.90;;;;;;5029297;28;20046;-69
2022/12/12 01:58:29;;;;;;;20.58;8.90;;;0.70;99.90;;;;;;5030567;28;20045;-69
2022/12/12 02:00:55;;;;;;;21.08;8.13;;;0.70;99.90;;;;;;5028834;28;20084;-68
2022/12/12 02:03:21;;;;;;;18.97;8.10;;;0.70;99.90;;;;;;5026739;28;20650;-69
2022/12/12 02:05:58;;;;;;;24.13;9.27;;;0.70;99.90;;;;;;5028775;28;20352;-69
2022/12/12 02:08:24;;;;;;;17.02;8.00;;;0.70;99.90;;;;;;5027353;28;20329;-69
2022/12/12 02:10:50;;;;;;;21.00;8.23;;;0.70;99.90;;;;;;5029493;28;20072;-69
2022/12/12 02:13:20;;;;;;;17.63;7.73;;;0.70;99.90;;;;;;5023428;28;20038;-69
2022/12/12 02:16:12;;;;;;;18.73;8.07;;;0.60;99.90;;;;;;5013436;28;20424;-69
2022/12/12 02:19:00;;;;;;;16.35;7.82;;;0.70;99.90;;;;;;5028989;28;20049;-69
2022/12/12 02:21:51;;;;;;;23.83;8.05;;;0.70;99.90;;;;;;5029499;28;20053;-70
2022/12/12 02:24:49;;;;;;;21.30;8.75;;;0.60;99.90;;;;;;5031059;28;20120;-69
2022/12/12 02:27:54;;;;;;;22.55;8.13;;;0.70;99.90;;;;;;4989689;28;20114;-69
2022/12/12 02:30:32;;;;;;;19.85;8.60;;;0.70;99.90;;;;;;5031466;28;20045;-70
2022/12/12 02:33:17;;;;;;;19.45;7.40;;;0.70;99.90;;;;;;5028933;28;20045;-69
2022/12/12 02:36:05;;;;;;;20.15;7.95;;;0.70;99.90;;;;;;5029161;28;20038;-70
2022/12/12 02:38:44;;;;;;;16.65;7.88;;;0.80;99.90;;;;;;5030708;28;20432;-69
2022/12/12 02:41:16;;;;;;;24.13;9.13;;;0.70;99.90;;;;;;5029004;28;20045;-69
2022/12/12 02:44:16;;;;;;;17.27;8.30;;;0.70;99.90;;;;;;5030200;28;20037;-69
2022/12/12 02:47:00;;;;;;;20.77;8.70;;;0.70;99.90;;;;;;5030683;28;20406;-70
2022/12/12 02:49:39;;;;;;;21.10;8.52;;;0.70;99.90;;;;;;5012358;28;20136;-69
2022/12/12 02:52:07;;;;;;;19.38;7.15;;;0.70;99.90;;;;;;5030260;28;20447;-70
2022/12/12 02:54:33;;;;;;;18.45;8.85;;;0.70;99.90;;;;;;5028588;28;20303;-69
2022/12/12 02:57:00;;;;;;;20.00;7.83;;;0.70;99.90;;;;;;5029078;28;20160;-70
2022/12/12 02:59:28;;;;;;;20.77;9.10;;;0.70;99.90;;;;;;5030248;28;20368;-70
2022/12/12 03:02:23;;;;;;;21.15;8.15;;;0.70;99.90;;;;;;5028186;28;20111;-69
2022/12/12 03:07:56;;;;;;;19.33;6.90;;;0.70;99.90;;;;;;5030257;28;20486;-69
2022/12/12 03:10:43;;;;;;;17.65;7.50;;;0.60;99.90;;;;;;5030376;28;20134;-69
2022/12/12 03:13:13;;;;;;;21.80;8.38;;;0.60;99.90;;;;;;5028027;28;20045;-70
2022/12/12 03:16:08;;;;;;;18.27;8.40;;;0.60;99.90;;;;;;5028378;28;20107;-70
2022/12/12 03:18:45;;;;;;;20.48;7.45;;;0.60;99.90;;;;;;5027983;28;20106;-70
2022/12/12 03:21:22;;;;;;;21.77;8.48;;;0.60;99.90;;;;;;5029914;28;20105;-70
2022/12/12 03:23:53;;;;;;;22.13;8.27;;;0.60;99.90;;;;;;5027379;28;20156;-70
2022/12/12 03:26:28;;;;;;;20.95;8.85;;;0.60;99.90;;;;;;5028326;28;20096;-69
2022/12/12 03:29:09;;;;;;;19.55;8.23;;;0.60;99.90;;;;;;5030182;28;20045;-69
2022/12/12 03:31:39;;;;;;;18.98;7.10;;;0.60;99.90;;;;;;5029384;28;20442;-69
2022/12/12 03:34:25;;;;;;;22.95;9.15;;;0.60;99.90;;;;;;5028169;28;20071;-69
2022/12/12 03:36:55;;;;;;;19.08;7.85;;;0.60;99.90;;;;;;5027692;28;20037;-70
2022/12/12 03:39:34;;;;;;;23.05;9.00;;;0.60;99.90;;;;;;5028109;28;20128;-69
2022/12/12 03:42:06;;;;;;;20.02;7.93;;;0.60;99.90;;;;;;5028936;28;20076;-70
2022/12/12 03:44:40;;;;;;;19.25;7.55;;;0.60;99.90;;;;;;5028071;28;20129;-70
2022/12/12 03:47:14;;;;;;;20.60;8.50;;;0.60;99.90;;;;;;5027405;28;20037;-70
2022/12/12 03:50:02;;;;;;;23.42;8.05;;;0.60;99.90;;;;;;5027875;28;20494;-70
2022/12/12 03:52:36;;;;;;;17.90;7.75;;;0.60;99.90;;;;;;5029405;28;20056;-70
2022/12/12 03:55:19;;;;;;;20.67;8.23;;;0.60;99.90;;;;;;5029096;28;20080;-70
2022/12/12 03:58:04;;;;;;;25.77;8.82;;;0.70;99.90;;;;;;5029441;28;20046;-70
2022/12/12 04:00:32;;;;;;;22.27;8.85;;;0.60;99.90;;;;;;5027475;28;20117;-70
2022/12/12 04:03:09;;;;;;;21.58;8.52;;;0.60;99.90;;;;;;5010926;28;20049;-69
2022/12/12 04:06:25;;;;;;;22.58;8.63;;;0.70;99.90;;;;;;5028851;28;20037;-70
2022/12/12 04:08:28;;;;;;;20.80;7.53;;;0.70;99.90;;;;;;5027470;28;20065;-70
2022/12/12 04:14:23;;;;;;;22.13;8.10;;;0.70;99.90;;;;;;5026283;28;20041;-69
2022/12/12 04:16:59;;;;;;;21.13;7.63;;;0.70;99.90;;;;;;5028225;28;20048;-70
2022/12/12 04:26:38;;;;;;;18.00;8.05;;;0.70;99.90;;;;;;5026884;28;20128;-70
2022/12/12 04:28:32;;;;;;;20.50;8.38;;;0.70;99.90;;;;;;5026814;28;20084;-69
2022/12/12 04:31:03;;;;;;;19.65;7.90;;;0.70;99.90;;;;;;5026919;28;20118;-69
2022/12/12 04:33:40;;;;;;;21.33;8.77;;;0.80;99.90;;;;;;5028452;28;20041;-69
2022/12/12 04:36:08;;;;;;;17.20;8.25;;;0.70;99.90;;;;;;5026870;28;20045;-69
2022/12/12 04:38:35;;;;;;;23.33;8.60;;;0.80;99.90;;;;;;5027485;28;20050;-70
2022/12/12 04:41:03;;;;;;;17.40;7.95;;;0.80;99.90;;;;;;5028517;28;20048;-69
2022/12/12 04:43:34;;;;;;;17.50;7.53;;;0.80;99.90;;;;;;5028663;28;20460;-69
2022/12/12 04:46:08;;;;;;;21.85;8.25;;;0.70;99.90;;;;;;5026770;28;20121;-70
2022/12/12 04:48:55;;;;;;;20.45;8.43;;;0.80;99.90;;;;;;5026905;28;20153;-70
2022/12/12 04:51:27;;;;;;;21.27;8.48;;;0.80;99.90;;;;;;5026038;28;20071;-70
2022/12/12 04:54:22;;;;;;;21.95;8.65;;;0.70;99.90;;;;;;5027107;28;20045;-69
2022/12/12 04:56:53;;;;;;;16.60;7.85;;;0.70;99.90;;;;;;5027216;28;20383;-70
2022/12/12 05:02:25;;;;;;;18.42;7.65;;;0.80;99.90;;;;;;5018034;28;20054;-66
2022/12/12 05:05:01;;;;;;;18.60;8.43;;;0.80;99.90;;;;;;5014009;28;20032;-65
2022/12/12 05:07:30;;;;;;;18.65;7.32;;;0.80;99.90;;;;;;5012120;28;20127;-67
2022/12/12 05:09:57;;;;;;;19.20;7.90;;;0.80;99.90;;;;;;4993996;28;20042;-67
2022/12/12 05:12:23;;;;;;;19.10;8.50;;;0.80;99.90;;;;;;5021452;28;20564;-67
2022/12/12 05:14:49;;;;;;;20.33;9.27;;;0.80;99.90;;;;;;5024100;28;20038;-67
2022/12/12 05:17:20;;;;;;;21.33;8.33;;;0.80;99.90;;;;;;5012892;28;21026;-67
2022/12/12 05:19:45;;;;;;;18.75;7.93;;;0.80;99.90;;;;;;5013744;28;20357;-68
2022/12/12 05:22:11;;;;;;;19.40;8.23;;;0.80;99.90;;;;;;5026517;28;20499;-66
2022/12/12 05:24:37;;;;;;;17.90;8.10;;;0.80;99.90;;;;;;5015945;28;20208;-67
2022/12/12 05:27:02;;;;;;;19.17;8.07;;;0.80;99.90;;;;;;5032926;28;20395;-67
2022/12/12 05:29:28;;;;;;;17.30;7.30;;;0.80;99.90;;;;;;5021559;28;20042;-67
2022/12/12 05:31:53;;;;;;;18.73;8.33;;;0.80;99.90;;;;;;5021124;28;20034;-67
2022/12/12 05:34:19;;;;;;;19.07;7.73;;;0.80;99.90;;;;;;5023763;28;20088;-67
2022/12/12 05:36:45;;;;;;;17.83;7.87;;;0.80;99.90;;;;;;5043285;28;20069;-67
2022/12/12 05:39:10;;;;;;;20.17;8.03;;;0.80;99.90;;;;;;5028021;28;20427;-67
2022/12/12 05:41:36;;;;;;;15.27;7.10;;;0.80;99.90;;;;;;5008394;28;20042;-67
2022/12/12 05:44:02;;;;;;;17.43;8.30;;;0.80;99.90;;;;;;5026616;28;20387;-66
2022/12/12 05:46:27;;;;;;;19.47;8.50;;;0.80;99.90;;;;;;5026705;28;20030;-67
2022/12/12 05:48:53;;;;;;;18.47;7.77;;;0.80;99.90;;;;;;5023732;28;20100;-67
2022/12/12 05:51:19;;;;;;;18.47;8.17;;;0.80;99.90;;;;;;5023593;28;20034;-67
2022/12/12 05:53:46;;;;;;;20.08;8.18;;;0.80;99.90;;;;;;5024587;28;20415;-67
2022/12/12 05:56:12;;;;;;;18.95;8.05;;;0.80;99.90;;;;;;5024001;28;20050;-67
2022/12/12 05:58:40;;;;;;;17.23;7.63;;;0.80;99.90;;;;;;5019542;28;20058;-68
2022/12/12 06:01:07;;;;;;;17.58;8.23;;;0.80;99.90;;;;;;5027656;28;20048;-67
2022/12/12 06:03:33;;;;;;;17.92;7.88;;;0.80;99.90;;;;;;5019934;28;20391;-67
2022/12/12 06:05:59;;;;;;;19.90;8.52;;;0.80;99.90;;;;;;5023118;28;20038;-67
2022/12/12 06:08:25;;;;;;;18.50;6.77;;;0.80;99.90;;;;;;5024217;28;20052;-67
2022/12/12 06:10:50;;;;;;;16.08;7.78;;;0.80;99.90;;;;;;5025406;28;20076;-67
2022/12/12 06:13:16;;;;;;;20.53;7.67;;;0.80;99.90;;;;;;5020375;28;20430;-67
2022/12/12 06:15:42;;;;;;;18.00;7.40;;;0.80;99.90;;;;;;5022254;28;20041;-67
2022/12/12 06:18:08;;;;;;;19.63;8.07;;;0.80;99.90;;;;;;5031491;28;20045;-67
2022/12/12 06:20:34;;;;;;;15.15;7.38;;;0.80;99.90;;;;;;5024677;28;20045;-67
2022/12/12 06:23:00;;;;;;;22.25;7.88;;;0.80;99.90;;;;;;5025007;28;20722;-67
2022/12/12 06:25:26;;;;;;;15.38;6.70;;;0.80;99.90;;;;;;5028867;28;20039;-67
2022/12/12 06:27:52;;;;;;;17.30;8.17;;;0.80;99.90;;;;;;5017350;28;20053;-67
2022/12/12 06:30:17;;;;;;;18.60;8.03;;;0.80;99.90;;;;;;5017946;28;20092;-67
2022/12/12 06:32:43;;;;;;;18.10;6.77;;;0.80;99.90;;;;;;5018801;28;20049;-67
2022/12/12 06:35:10;;;;;;;17.67;7.97;;;0.70;99.90;;;;;;5019621;28;20163;-67
2022/12/12 06:37:36;;;;;;;17.38;8.20;;;0.80;99.90;;;;;;5042713;28;20103;-67
2022/12/12 06:40:02;;;;;;;15.77;7.30;;;0.70;99.90;;;;;;5018656;28;20033;-67
2022/12/12 06:42:27;;;;;;;17.27;7.15;;;0.70;99.90;;;;;;5013907;28;20333;-69
2022/12/12 06:44:53;;;;;;;16.37;7.37;;;0.80;99.90;;;;;;5024801;28;20033;-69
2022/12/12 06:47:19;;;;;;;15.97;7.30;;;0.70;99.90;;;;;;5022960;28;20037;-68
2022/12/12 06:49:44;;;;;;;19.93;8.60;;;0.70;99.90;;;;;;5022528;28;20080;-67
2022/12/12 06:52:10;;;;;;;17.93;7.53;;;0.70;99.90;;;;;;5025910;28;20117;-67
2022/12/12 06:54:35;;;;;;;18.90;8.43;;;0.80;99.90;;;;;;5026319;28;20043;-67
2022/12/12 06:57:01;;;;;;;16.90;7.47;;;0.70;99.90;;;;;;5023146;28;20042;-67
2022/12/12 06:59:28;;;;;;;19.37;7.27;;;0.80;99.90;;;;;;5024684;28;20052;-67
2022/12/12 07:01:57;;;;;;;15.70;7.43;;;0.70;99.90;;;;;;5019818;28;20125;-67
2022/12/12 07:04:24;;;;;;;17.80;7.60;;;0.70;99.90;;;;;;5036508;28;20548;-67
2022/12/12 07:06:50;;;;;;;15.70;7.45;;;0.80;99.90;;;;;;5023319;28;20061;-67
2022/12/12 07:09:16;;;;;;;14.55;7.45;;;0.80;99.90;;;;;;5019481;28;20164;-67
2022/12/12 07:11:42;;;;;;;19.92;8.50;;;0.80;99.90;;;;;;5022399;28;20049;-67
2022/12/12 07:14:09;;;;;;;17.90;8.40;;;0.80;99.90;;;;;;5025477;28;20065;-66
2022/12/12 07:16:35;;;;;;;18.85;7.47;;;0.80;99.90;;;;;;5024412;28;20052;-66
2022/12/12 07:19:01;;;;;;;17.83;7.63;;;0.70;99.90;;;;;;5029129;28;20407;-67
2022/12/12 07:21:27;;;;;;;19.20;8.03;;;0.80;99.90;;;;;;5035101;28;20033;-68
2022/12/12 07:23:52;;;;;;;15.05;6.65;;;0.80;99.90;;;;;;5019333;28;23174;-67
2022/12/12 07:26:21;;;;;;;19.27;7.10;;;0.80;99.90;;;;;;5025174;28;20054;-66
2022/12/12 07:28:48;;;;;;;15.20;7.05;;;0.80;99.90;;;;;;5020190;28;20037;-67
2022/12/12 07:31:17;;;;;;;16.90;7.55;;;0.70;99.90;;;;;;5021944;28;20080;-66
2022/12/12 07:33:43;;;;;;;20.20;8.07;;;0.70;99.90;;;;;;5020637;28;20392;-66
2022/12/12 07:36:09;;;;;;;15.50;7.25;;;0.80;99.90;;;;;;5017384;28;20049;-67
2022/12/12 07:38:35;;;;;;;14.70;6.67;;;0.80;99.90;;;;;;5016267;28;20049;-66
2022/12/12 07:41:09;;;;;;;16.10;7.95;;;0.70;99.90;;;;;;5018840;28;20033;-66
2022/12/12 07:43:36;;;;;;;19.00;7.40;;;0.70;99.90;;;;;;5016915;28;20057;-67
2022/12/12 07:46:06;;;;;;;20.88;6.72;;;0.80;99.90;;;;;;5025358;28;20065;-67
2022/12/12 07:48:31;;;;;;;16.67;6.88;;;0.80;99.90;;;;;;5019603;28;20052;-66
2022/12/12 07:50:59;;;;;;;21.50;8.27;;;0.70;99.90;;;;;;5028277;28;20048;-67
2022/12/12 07:53:25;;;;;;;17.65;6.68;;;0.70;99.90;;;;;;5026714;28;20506;-66
2022/12/12 07:55:50;;;;;;;15.37;7.53;;;0.80;99.90;;;;;;5027678;28;20115;-67
2022/12/12 07:58:16;;;;;;;16.30;6.93;;;0.80;99.90;;;;;;5023219;28;20072;-68
2022/12/12 08:00:42;;;;;;;17.47;7.03;;;0.80;99.90;;;;;;5016635;28;20086;-67
2022/12/12 08:03:07;;;;;;;15.73;7.27;;;0.80;99.90;;;;;;5018055;28;20487;-68
2022/12/12 08:05:33;;;;;;;18.47;8.17;;;0.80;99.90;;;;;;5019388;28;20049;-67
2022/12/12 08:07:59;;;;;;;17.13;7.10;;;0.80;99.90;;;;;;5021056;28;20045;-67
2022/12/12 08:10:24;;;;;;;17.27;7.33;;;0.80;99.90;;;;;;5026195;28;20041;-68
2022/12/12 08:12:50;;;;;;;15.60;7.40;;;0.80;99.90;;;;;;5022656;28;20402;-67
2022/12/12 08:15:16;;;;;;;14.27;6.67;;;0.80;99.90;;;;;;5027676;28;20050;-66
2022/12/12 08:17:43;;;;;;;15.68;6.75;;;0.90;99.90;;;;;;5021699;28;20124;-67
2022/12/12 08:20:09;;;;;;;16.45;7.97;;;0.90;99.90;;;;;;5025492;28;20034;-68
2022/12/12 08:22:35;;;;;;;14.20;6.25;;;0.90;99.90;;;;;;5021898;28;20038;-67
2022/12/12 08:25:00;;;;;;;17.53;8.03;;;0.90;99.90;;;;;;5013754;28;20080;-68
2022/12/12 08:27:26;;;;;;;17.20;7.47;;;0.90;99.90;;;;;;5017175;28;20394;-68
2022/12/12 08:29:53;;;;;;;19.40;7.30;;;0.90;99.90;;;;;;5020142;28;20512;-68
2022/12/12 08:32:19;;;;;;;19.45;7.30;;;0.90;99.90;;;;;;5019028;28;20034;-67
2022/12/12 08:34:46;;;;;;;16.90;7.13;;;0.90;99.90;;;;;;5014473;28;20487;-68
2022/12/12 08:37:12;;;;;;;21.02;8.55;;;0.90;99.90;;;;;;5018696;28;20043;-68
2022/12/12 08:39:38;;;;;;;19.97;8.03;;;0.90;99.90;;;;;;5011767;28;20049;-67
2022/12/12 08:42:04;;;;;;;15.57;7.00;;;0.90;99.90;;;;;;5020885;28;20471;-68
2022/12/12 08:44:29;;;;;;;16.77;6.83;;;1.00;99.90;;;;;;5018180;28;20048;-68
2022/12/12 08:46:55;;;;;;;18.17;7.90;;;1.00;99.90;;;;;;5029636;28;20076;-68
2022/12/12 08:49:21;;;;;;;19.07;7.43;;;1.00;99.90;;;;;;5027532;28;20037;-68
2022/12/12 08:51:46;;;;;;;17.23;8.37;;;1.00;99.90;;;;;;5013054;28;20049;-67
2022/12/12 08:54:13;;;;;;;17.03;7.07;;;1.00;99.90;;;;;;5012809;28;20418;-68
2022/12/12 08:56:39;;;;;;;17.42;7.68;;;1.00;99.90;;;;;;5021968;28;20052;-67
2022/12/12 08:59:05;;;;;;;16.25;7.40;;;1.00;99.90;;;;;;5009598;28;20057;-68
2022/12/12 09:01:31;;;;;;;16.07;7.33;;;1.00;99.90;;;;;;5018416;28;20033;-69
2022/12/12 09:03:57;;;;;;;19.17;8.00;;;1.00;99.90;;;;;;5020312;28;20144;-68
2022/12/12 09:06:25;;;;;;;19.08;9.00;;;1.00;99.90;;;;;;5025372;28;20033;-68
2022/12/12 09:08:51;;;;;;;18.77;7.75;;;1.00;99.90;;;;;;5017556;28;20049;-68
2022/12/12 09:11:17;;;;;;;15.25;7.05;;;1.00;99.90;;;;;;5025854;28;20527;-69
2022/12/12 09:13:43;;;;;;;18.45;7.43;;;1.00;99.90;;;;;;5022638;28;20057;-68
2022/12/12 09:16:10;;;;;;;17.13;7.40;;;1.00;99.90;;;;;;5016964;28;20037;-68
2022/12/12 09:18:36;;;;;;;15.65;7.05;;;1.00;99.90;;;;;;5020558;28;20051;-68
2022/12/12 09:21:03;;;;;;;17.20;7.93;;;1.00;99.90;;;;;;5016144;28;20498;-68
2022/12/12 09:23:28;;;;;;;17.88;8.13;;;1.00;99.90;;;;;;5018686;28;20487;-68
2022/12/12 09:25:54;;;;;;;16.03;7.37;;;1.00;99.90;;;;;;5021066;28;20064;-68
2022/12/12 09:28:22;;;;;;;18.30;7.40;;;1.00;99.90;;;;;;5013863;28;20472;-68
2022/12/12 09:30:49;;;;;;;20.23;7.95;;;1.10;99.90;;;;;;5015882;28;20060;-68
2022/12/12 09:33:17;;;;;;;17.83;7.10;;;1.10;99.90;;;;;;5018739;28;20076;-68
2022/12/12 09:35:43;;;;;;;17.90;7.65;;;1.10;99.90;;;;;;5018251;28;20080;-68
2022/12/12 09:38:09;;;;;;;16.48;8.07;;;1.10;99.90;;;;;;5020275;28;20515;-69
2022/12/12 09:40:49;;;;;;;15.95;7.25;;;1.10;99.90;;;;;;5022333;28;20091;-68
2022/12/12 09:43:18;;;;;;;17.20;8.00;;;1.10;99.90;;;;;;5009651;28;20046;-68
2022/12/12 09:45:45;;;;;;;15.27;6.88;;;1.10;99.90;;;;;;5022426;28;20402;-69
2022/12/12 09:48:18;;;;;;;15.20;6.55;;;1.10;99.90;;;;;;5021340;28;20108;-69
2022/12/12 09:50:47;;;;;;;21.98;8.43;;;1.20;99.90;;;;;;5022101;28;20041;-68
2022/12/12 09:53:17;;;;;;;18.33;8.32;;;1.20;99.90;;;;;;5020377;28;20265;-68
2022/12/12 09:55:49;;;;;;;18.55;8.40;;;1.20;99.90;;;;;;5018754;28;20045;-75
2022/12/12 09:58:54;;;;;;;18.75;8.18;;;1.20;99.90;;;;;;5016527;28;20423;-71
2022/12/12 10:01:25;;;;;;;18.20;8.07;;;1.20;99.90;;;;;;5012193;28;20052;-72
2022/12/12 10:04:00;;;;;;;20.63;7.30;;;1.20;99.90;;;;;;5017537;28;20080;-68
2022/12/12 10:06:31;;;;;;;18.00;8.15;;;1.30;99.90;;;;;;5032166;28;20120;-68
2022/12/12 10:09:06;;;;;;;17.60;7.32;;;1.30;99.90;;;;;;5019318;28;20550;-67
2022/12/12 10:11:51;;;;;;;19.58;8.25;;;1.30;99.90;;;;;;5018852;28;20034;-69
2022/12/12 10:14:44;;;;;;;18.15;8.20;;;1.40;99.90;;;;;;5021292;28;20045;-68
2022/12/12 10:17:34;;;;;;;19.30;7.80;;;1.40;99.90;;;;;;5015678;28;20097;-68
2022/12/12 10:20:10;;;;;;;17.65;7.85;;;1.40;99.90;;;;;;5021224;28;20054;-68
2022/12/12 10:22:38;;;;;;;22.08;7.97;;;1.40;99.90;;;;;;5022786;28;20042;-68
2022/12/12 10:25:26;;;;;;;21.02;8.23;;;1.50;99.90;;;;;;5019901;28;20101;-67
2022/12/12 10:28:16;;;;;;;15.77;7.95;;;1.50;99.90;;;;;;5025106;28;20111;-66
2022/12/12 10:31:19;;;;;;;16.73;7.88;;;1.50;99.90;;;;;;5021945;28;20037;-68
2022/12/12 10:33:54;;;;;;;18.10;7.90;;;1.60;99.90;;;;;;5015849;28;20077;-67
2022/12/12 10:36:44;;;;;;;20.73;8.75;;;1.60;99.90;;;;;;5016022;28;20049;-68
2022/12/12 10:39:26;;;;;;;19.80;7.28;;;1.60;99.90;;;;;;5019934;28;20041;-68
2022/12/12 10:42:16;;;;;;;17.40;7.50;;;1.60;99.90;;;;;;5017288;28;20042;-68
2022/12/12 10:45:01;;;;;;;19.30;8.18;;;1.60;99.90;;;;;;5021598;28;20041;-68
2022/12/12 10:47:27;;;;;;;19.40;8.98;;;1.70;99.90;;;;;;5025199;28;20069;-71
2022/12/12 10:50:10;;;;;;;24.17;8.53;;;1.70;99.90;;;;;;5029966;28;20036;-71
2022/12/12 10:52:36;;;;;;;18.40;7.30;;;1.70;99.90;;;;;;5011944;28;20080;-67
2022/12/12 10:55:15;;;;;;;18.50;8.07;;;1.70;99.90;;;;;;5043274;28;20042;-72
2022/12/12 10:57:41;;;;;;;20.40;8.48;;;1.70;99.90;;;;;;5017113;28;20049;-69
2022/12/12 11:00:38;;;;;;;21.77;8.97;;;1.80;99.90;;;;;;5071835;23;20072;-68
2022/12/12 11:03:11;;;;;;;17.08;8.10;;;1.80;99.90;;;;;;4987827;28;20046;-70
2022/12/12 11:05:38;;;;;;;18.70;7.18;;;1.80;99.90;;;;;;4972341;28;20044;-71
2022/12/12 11:08:16;;;;;;;26.98;9.20;;;1.80;99.90;;;;;;4972439;28;20050;-69
2022/12/12 11:10:42;;;;;;;21.92;8.85;;;1.90;99.90;;;;;;4964251;28;20602;-68
2022/12/12 11:13:08;;;;;;;19.63;9.35;;;2.00;99.90;;;;;;4989141;28;20040;-69
2022/12/12 11:15:48;;;;;;;21.57;9.20;;;2.00;99.90;;;;;;4989447;28;20133;-69
2022/12/12 11:18:19;;;;;;;20.83;8.20;;;2.00;99.90;;;;;;4971514;28;20516;-69
2022/12/12 11:20:48;;;;;;;22.30;8.07;;;2.00;99.90;;;;;;4969638;28;20144;-69
2022/12/12 11:23:25;;;;;;;22.90;10.00;;;2.00;99.90;;;;;;4963506;28;20391;-69
2022/12/12 11:25:57;;;;;;;20.38;8.25;;;2.10;99.90;;;;;;4970687;28;20077;-69
2022/12/12 11:28:26;;;;;;;22.35;8.73;;;2.10;99.90;;;;;;4987224;28;20043;-69
2022/12/12 11:30:54;;;;;;;22.92;8.82;;;2.10;99.90;;;;;;4971424;28;20057;-69
2022/12/12 11:33:32;;;;;;;21.50;9.13;;;2.10;99.90;;;;;;4970231;28;20429;-73
2022/12/12 11:36:00;;;;;;;20.33;8.20;;;2.20;99.90;;;;;;4953364;28;20567;-69
2022/12/12 11:38:33;;;;;;;20.05;9.00;;;2.20;99.90;;;;;;4952292;28;20042;-69
2022/12/12 11:41:06;;;;;;;19.10;8.10;;;2.20;99.90;;;;;;4967703;28;20144;-69
2022/12/12 11:43:45;;;;;;;20.30;8.77;;;2.20;99.90;;;;;;4966796;28;20104;-69
2022/12/12 11:46:13;;;;;;;21.13;8.07;;;2.20;99.90;;;;;;4980289;28;20031;-69
2022/12/12 11:48:50;;;;;;;23.58;9.60;;;2.20;99.90;;;;;;4980910;28;20149;-69
2022/12/12 11:51:36;;;;;;;25.00;10.98;;;2.20;99.90;;;;;;4969145;28;20072;-69
2022/12/12 11:54:11;;;;;;;20.25;8.55;;;2.20;99.90;;;;;;4988395;28;20034;-69
2022/12/12 11:56:43;;;;;;;18.52;8.10;;;2.20;99.90;;;;;;4976431;28;20046;-68
2022/12/12 11:59:35;;;;;;;20.25;9.07;;;2.20;99.90;;;;;;4987598;28;20085;-69
2022/12/12 12:02:27;;;;;;;18.85;9.38;;;2.20;99.90;;;;;;4960800;28;20038;-69
2022/12/12 12:05:11;;;;;;;23.83;9.13;;;2.10;99.90;;;;;;4963973;28;20058;-69
2022/12/12 12:08:01;;;;;;;21.90;8.93;;;2.10;99.90;;;;;;4971141;28;20158;-69
2022/12/12 12:10:46;;;;;;;22.27;8.95;;;2.20;99.90;;;;;;4981330;28;20057;-69
2022/12/12 12:13:35;;;;;;;22.92;9.50;;;2.20;99.90;;;;;;4968884;28;20108;-69
2022/12/12 12:16:34;;;;;;;19.52;8.93;;;2.20;99.90;;;;;;4966626;28;20078;-69
2022/12/12 12:19:32;;;;;;;18.98;8.32;;;2.20;99.90;;;;;;4987930;28;20061;-71
2022/12/12 12:22:34;;;;;;;20.55;8.57;;;2.20;99.90;;;;;;4929660;28;20067;-69
2022/12/12 12:25:17;;;;;;;16.25;7.88;;;2.20;99.90;;;;;;4969386;28;20042;-69
2022/12/12 12:28:05;;;;;;;21.55;9.27;;;2.30;99.90;;;;;;4971099;28;20441;-69
2022/12/12 12:30:55;;;;;;;20.30;8.70;;;2.30;99.90;;;;;;4957847;28;20061;-68
2022/12/12 12:33:47;;;;;;;22.35;9.10;;;2.30;99.90;;;;;;4952885;28;20045;-68
2022/12/12 12:36:37;;;;;;;24.13;8.85;;;2.40;99.90;;;;;;4967603;28;20042;-68
2022/12/12 12:39:51;;;;;;;19.58;8.40;;;2.30;99.90;;;;;;4975975;28;20452;-68
2022/12/12 12:42:35;;;;;;;20.17;8.65;;;2.30;99.90;;;;;;4907672;29;20407;-69
2022/12/12 12:45:17;;;;;;;20.27;6.90;;;2.30;99.90;;;;;;4909486;29;20142;-69
2022/12/12 12:47:59;;;;;;;18.10;7.35;;;2.30;99.90;;;;;;4961184;28;20050;-69
2022/12/12 12:50:33;;;;;;;14.10;7.03;;;2.30;99.90;;;;;;4975003;28;20042;-69
2022/12/12 12:53:22;;;;;;;14.75;6.82;;;2.20;99.90;;;;;;4975773;28;20050;-69
2022/12/12 12:55:51;;;;;;;14.38;6.45;;;2.20;99.90;;;;;;4967132;28;20050;-69
2022/12/12 12:58:22;;;;;;;15.13;6.53;;;2.20;99.90;;;;;;4977512;28;20052;-69
2022/12/12 13:00:57;;;;;;;14.32;6.45;;;2.20;99.90;;;;;;4958739;28;20496;-69
2022/12/12 13:03:30;;;;;;;21.10;7.57;;;2.20;99.90;;;;;;4982550;28;20445;-69
2022/12/12 13:06:01;;;;;;;15.68;7.60;;;2.20;99.90;;;;;;4979754;28;20488;-69
2022/12/12 13:08:39;;;;;;;13.23;6.65;;;2.20;99.90;;;;;;4987484;28;20373;-69
2022/12/12 13:11:13;;;;;;;16.67;7.63;;;2.20;99.90;;;;;;4968145;28;20046;-69
2022/12/12 13:13:41;;;;;;;19.95;7.50;;;2.30;99.90;;;;;;4979683;28;20390;-69
2022/12/12 13:16:17;;;;;;;15.95;6.55;;;2.30;99.90;;;;;;4945396;28;20038;-69
2022/12/12 13:18:45;;;;;;;16.20;7.10;;;2.20;99.90;;;;;;4994315;28;20046;-69
2022/12/12 13:21:30;;;;;;;13.70;6.70;;;2.20;99.90;;;;;;4963194;28;20050;-69
2022/12/12 13:24:30;;;;;;;14.57;6.57;;;2.20;99.90;;;;;;4963270;28;20066;-69
2022/12/12 13:27:03;;;;;;;16.23;7.35;;;2.20;99.90;;;;;;4985971;28;20070;-69
2022/12/12 13:29:58;;;;;;;16.80;7.85;;;2.20;99.90;;;;;;4951498;28;20358;-69